KOCW/OCW METAR and TAF weather

Enter ICAO airport designator
Station Type Date Time Source
KOCW METAR 2021/01/27 14:35 UTC NOAA

KOCW 271435Z AUTO 34003KT 5SM BR SCT004 BKN110 09/08 A3008 RMK AO2 T00890080


Station Type Date Time Source
KOCW Decoded METAR 2021/01/27 14:35 UTC NOAA

Washington, Warren Field Airport, NC, United States (KOCW) 35-34-14N 077-02-59W
Jan 27, 2021 - 09:35 AM EST / 2021.01.27 1435 UTC
Wind: from the NNW (340 degrees) at 3 MPH (3 KT):0
Visibility: 5 mile(s):0
Sky conditions: mostly cloudy
Weather: mist
Temperature: 48.0 F (8.9 C)
Dew Point: 46.4 F (8.0 C)
Relative Humidity: 94%
Pressure (altimeter): 30.08 in. Hg (1018 hPa)
ob: KOCW 271435Z AUTO 34003KT 5SM BR SCT004 BKN110 09/08 A3008 RMK AO2 T00890080
cycle: 14

Station Type Date Time Source
KOCW TAF UTC NOAA

Error!

Example: see airport list